Terminal Aerodrome Forecast
Issued by NWS

Current Version | Previous Version | Text Only | Print | Product List | Glossary On
Versions: 1 2 3 4 5 6 7 8 9 10 11 12 13 14 15 16 17 18 19 20 21 22 23 24 25 26 27 28
000
FTAK31 PANC 241726
TAFAVD
TAF
PAVD 241726Z 2418/2518 VRB03KT 6SM -RA BKN010 OVC045
     FM242200 25008KT 6SM -RA SCT010 OVC025
     FM250600 VRB03KT 6SM -RA BR BKN010
      AMD LTD TO CLD VIS AND WIND=

USA.gov is the U.S. government's official web portal to all federal, state and local government web resources and services.